JST738 YMLT-YMML
Flight info
| Callsign | JST738 |
|---|---|
| Flight time | 0h 49m |
| Altitude | 30000 |
| Route | DCT LT H215 RAZZI W687 ML DCT |
| Aircraft | A320/M-SDE3FGHIRWY/LB1 |
Departure
| Time | 2026-04-17 11:17 |
|---|---|
| Airport | Launceston Airport (YMLT) |
Arrival
| Time | 2026-04-17 12:06 |
|---|---|
| Airport | Melbourne Airport (YMML) |
| Time | Latitude | Longitude | Altitude | Speed | Heading |
|---|---|---|---|---|---|
| 2026-04-17 11:06 | -41.54314 | 147.20677 | 583 ft | 0 kts | 296° |
| 2026-04-17 11:12 | -41.54308 | 147.20667 | 583 ft | 3 kts | 316° |
| 2026-04-17 11:12 | -41.54292 | 147.20699 | 583 ft | 8 kts | 97° |
| 2026-04-17 11:13 | -41.54342 | 147.20767 | 584 ft | 12 kts | 146° |
| 2026-04-17 11:13 | -41.54420 | 147.20833 | 584 ft | 14 kts | 148° |
| 2026-04-17 11:13 | -41.54502 | 147.20904 | 589 ft | 13 kts | 147° |
| 2026-04-17 11:13 | -41.54577 | 147.20968 | 590 ft | 14 kts | 148° |
| 2026-04-17 11:14 | -41.54673 | 147.21049 | 588 ft | 18 kts | 146° |
| 2026-04-17 11:14 | -41.54786 | 147.21145 | 586 ft | 21 kts | 147° |
| 2026-04-17 11:14 | -41.54920 | 147.21261 | 583 ft | 24 kts | 147° |
| 2026-04-17 11:14 | -41.55045 | 147.21367 | 583 ft | 20 kts | 147° |
| 2026-04-17 11:15 | -41.55138 | 147.21447 | 585 ft | 13 kts | 147° |
| 2026-04-17 11:15 | -41.55213 | 147.21515 | 587 ft | 13 kts | 139° |
| 2026-04-17 11:15 | -41.55230 | 147.21622 | 589 ft | 10 kts | 79° |
| 2026-04-17 11:15 | -41.55200 | 147.21689 | 591 ft | 6 kts | 29° |
| 2026-04-17 11:16 | -41.55166 | 147.21669 | 592 ft | 6 kts | 318° |
| 2026-04-17 11:16 | -41.55143 | 147.21648 | 592 ft | 0 kts | 327° |
| 2026-04-17 11:16 | -41.55125 | 147.21632 | 592 ft | 21 kts | 327° |
| 2026-04-17 11:16 | -41.54772 | 147.21329 | 589 ft | 96 kts | 327° |
| 2026-04-17 11:17 | -41.54040 | 147.20696 | 593 ft | 149 kts | 326° |
| 2026-04-17 11:17 | -41.53158 | 147.19924 | 1091 ft | 151 kts | 324° |
| 2026-04-17 11:17 | -41.52287 | 147.19153 | 1751 ft | 150 kts | 319° |
| 2026-04-17 11:17 | -41.51764 | 147.18026 | 2302 ft | 142 kts | 278° |
| 2026-04-17 11:18 | -41.51546 | 147.16745 | 2785 ft | 142 kts | 280° |
| 2026-04-17 11:18 | -41.51243 | 147.15489 | 3257 ft | 141 kts | 279° |
| 2026-04-17 11:18 | -41.50946 | 147.14239 | 3722 ft | 145 kts | 288° |
| 2026-04-17 11:18 | -41.50399 | 147.13000 | 3961 ft | 166 kts | 294° |
| 2026-04-17 11:19 | -41.49766 | 147.11600 | 4180 ft | 186 kts | 295° |
| 2026-04-17 11:19 | -41.49063 | 147.10041 | 4445 ft | 207 kts | 296° |
| 2026-04-17 11:19 | -41.48264 | 147.08307 | 4757 ft | 232 kts | 297° |
| 2026-04-17 11:19 | -41.47358 | 147.06406 | 5212 ft | 253 kts | 297° |
| 2026-04-17 11:20 | -41.46400 | 147.04471 | 6211 ft | 249 kts | 296° |
| 2026-04-17 11:20 | -41.45445 | 147.02542 | 7126 ft | 247 kts | 294° |
| 2026-04-17 11:20 | -41.44509 | 147.00613 | 7738 ft | 249 kts | 293° |
| 2026-04-17 11:20 | -41.43346 | 146.98851 | 8220 ft | 265 kts | 317° |
| 2026-04-17 11:21 | -41.41604 | 146.97741 | 8769 ft | 293 kts | 333° |
| 2026-04-17 11:21 | -41.39605 | 146.96840 | 9274 ft | 310 kts | 335° |
| 2026-04-17 11:21 | -41.37519 | 146.95967 | 10006 ft | 317 kts | 336° |
| 2026-04-17 11:21 | -41.35367 | 146.95089 | 10410 ft | 334 kts | 336° |
| 2026-04-17 11:22 | -41.33073 | 146.94144 | 10608 ft | 355 kts | 336° |
| 2026-04-17 11:22 | -41.30687 | 146.93155 | 11156 ft | 363 kts | 337° |
| 2026-04-17 11:22 | -41.28263 | 146.92150 | 11846 ft | 366 kts | 336° |
| 2026-04-17 11:22 | -41.25815 | 146.91132 | 12541 ft | 369 kts | 336° |
| 2026-04-17 11:23 | -41.23353 | 146.90105 | 13242 ft | 373 kts | 336° |
| 2026-04-17 11:23 | -41.20868 | 146.89066 | 13921 ft | 376 kts | 336° |
| 2026-04-17 11:23 | -41.18362 | 146.88017 | 14506 ft | 379 kts | 336° |
| 2026-04-17 11:23 | -41.15834 | 146.86959 | 15086 ft | 383 kts | 336° |
| 2026-04-17 11:24 | -41.13284 | 146.85891 | 15652 ft | 386 kts | 336° |
| 2026-04-17 11:24 | -41.10713 | 146.84813 | 16191 ft | 390 kts | 336° |
| 2026-04-17 11:24 | -41.08114 | 146.83727 | 16787 ft | 393 kts | 336° |
| 2026-04-17 11:24 | -41.05498 | 146.82635 | 17376 ft | 396 kts | 336° |
| 2026-04-17 11:25 | -41.02858 | 146.81533 | 17942 ft | 400 kts | 336° |
| 2026-04-17 11:25 | -41.00194 | 146.80418 | 18492 ft | 404 kts | 336° |
| 2026-04-17 11:25 | -40.97503 | 146.79297 | 18984 ft | 407 kts | 336° |
| 2026-04-17 11:25 | -40.94787 | 146.78173 | 19496 ft | 410 kts | 336° |
| 2026-04-17 11:26 | -40.92090 | 146.77056 | 20011 ft | 413 kts | 336° |
| 2026-04-17 11:26 | -40.89335 | 146.75911 | 20521 ft | 417 kts | 336° |
| 2026-04-17 11:26 | -40.86560 | 146.74758 | 20969 ft | 420 kts | 336° |
| 2026-04-17 11:26 | -40.83761 | 146.73595 | 21452 ft | 423 kts | 336° |
| 2026-04-17 11:27 | -40.80944 | 146.72424 | 21914 ft | 426 kts | 336° |
| 2026-04-17 11:27 | -40.78102 | 146.71246 | 22365 ft | 429 kts | 336° |
| 2026-04-17 11:27 | -40.75239 | 146.70066 | 22831 ft | 432 kts | 336° |
| 2026-04-17 11:27 | -40.72361 | 146.68877 | 23300 ft | 435 kts | 336° |
| 2026-04-17 11:28 | -40.69459 | 146.67678 | 23739 ft | 438 kts | 336° |
| 2026-04-17 11:28 | -40.66536 | 146.66478 | 24117 ft | 441 kts | 336° |
| 2026-04-17 11:28 | -40.63594 | 146.65268 | 24470 ft | 444 kts | 336° |
| 2026-04-17 11:28 | -40.60634 | 146.64050 | 24834 ft | 447 kts | 336° |
| 2026-04-17 11:29 | -40.57653 | 146.62824 | 25199 ft | 450 kts | 336° |
| 2026-04-17 11:29 | -40.54651 | 146.61595 | 25567 ft | 453 kts | 336° |
| 2026-04-17 11:29 | -40.51631 | 146.60360 | 25929 ft | 456 kts | 336° |
| 2026-04-17 11:29 | -40.48595 | 146.59117 | 26283 ft | 459 kts | 336° |
| 2026-04-17 11:30 | -40.45535 | 146.57860 | 26650 ft | 462 kts | 336° |
| 2026-04-17 11:30 | -40.42464 | 146.56596 | 26980 ft | 464 kts | 336° |
| 2026-04-17 11:30 | -40.39369 | 146.55326 | 27336 ft | 467 kts | 336° |
| 2026-04-17 11:30 | -40.36259 | 146.54055 | 27672 ft | 470 kts | 336° |
| 2026-04-17 11:31 | -40.33127 | 146.52779 | 28009 ft | 473 kts | 336° |
| 2026-04-17 11:31 | -40.29974 | 146.51495 | 28352 ft | 475 kts | 336° |
| 2026-04-17 11:31 | -40.26848 | 146.50219 | 28699 ft | 478 kts | 336° |
| 2026-04-17 11:31 | -40.23662 | 146.48919 | 29034 ft | 481 kts | 336° |
| 2026-04-17 11:32 | -40.20462 | 146.47613 | 29332 ft | 483 kts | 336° |
| 2026-04-17 11:32 | -40.17242 | 146.46299 | 29707 ft | 486 kts | 336° |
| 2026-04-17 11:32 | -40.14007 | 146.44982 | 30039 ft | 489 kts | 336° |
| 2026-04-17 11:32 | -40.10765 | 146.43669 | 30142 ft | 483 kts | 336° |
| 2026-04-17 11:33 | -40.07594 | 146.42400 | 30150 ft | 472 kts | 336° |
| 2026-04-17 11:33 | -40.04466 | 146.41150 | 30152 ft | 469 kts | 336° |
| 2026-04-17 11:33 | -39.98262 | 146.38591 | 30151 ft | 465 kts | 334° |
| 2026-04-17 11:34 | -39.92237 | 146.35581 | 30154 ft | 462 kts | 330° |
| 2026-04-17 11:34 | -39.86313 | 146.32349 | 30156 ft | 462 kts | 330° |
| 2026-04-17 11:35 | -39.80352 | 146.29182 | 30157 ft | 463 kts | 331° |
| 2026-04-17 11:35 | -39.74350 | 146.26132 | 30141 ft | 463 kts | 332° |
| 2026-04-17 11:36 | -39.68347 | 146.23107 | 30159 ft | 462 kts | 332° |
| 2026-04-17 11:36 | -39.62354 | 146.20059 | 30176 ft | 462 kts | 332° |
| 2026-04-17 11:37 | -39.56377 | 146.17000 | 30178 ft | 462 kts | 332° |
| 2026-04-17 11:37 | -39.50400 | 146.13951 | 30182 ft | 462 kts | 332° |
| 2026-04-17 11:38 | -39.44418 | 146.10920 | 30186 ft | 462 kts | 332° |
| 2026-04-17 11:38 | -39.38432 | 146.07896 | 30196 ft | 461 kts | 332° |
| 2026-04-17 11:39 | -39.32452 | 146.04875 | 30196 ft | 461 kts | 332° |
| 2026-04-17 11:39 | -39.26515 | 146.01871 | 30166 ft | 461 kts | 332° |
| 2026-04-17 11:40 | -39.20544 | 145.98860 | 30200 ft | 460 kts | 332° |
| 2026-04-17 11:40 | -39.14578 | 145.95863 | 30208 ft | 460 kts | 332° |
| 2026-04-17 11:41 | -39.08613 | 145.92878 | 30208 ft | 460 kts | 332° |
| 2026-04-17 11:41 | -39.02657 | 145.89895 | 30195 ft | 459 kts | 333° |
| 2026-04-17 11:42 | -38.97660 | 145.87401 | 30216 ft | 459 kts | 333° |
| 2026-04-17 11:42 | -38.90738 | 145.83947 | 30218 ft | 459 kts | 333° |
| 2026-04-17 11:43 | -38.85749 | 145.81465 | 30217 ft | 459 kts | 333° |
| 2026-04-17 11:43 | -38.79790 | 145.78508 | 30217 ft | 459 kts | 333° |
| 2026-04-17 11:44 | -38.76829 | 145.77036 | 29696 ft | 456 kts | 333° |
| 2026-04-17 11:44 | -38.73927 | 145.75594 | 29245 ft | 450 kts | 333° |
| 2026-04-17 11:44 | -38.71018 | 145.74151 | 28794 ft | 445 kts | 333° |
| 2026-04-17 11:44 | -38.68144 | 145.72725 | 28347 ft | 441 kts | 333° |
| 2026-04-17 11:45 | -38.65297 | 145.71311 | 27902 ft | 437 kts | 333° |
| 2026-04-17 11:45 | -38.62468 | 145.69910 | 27458 ft | 434 kts | 333° |
| 2026-04-17 11:45 | -38.59663 | 145.68525 | 27004 ft | 431 kts | 333° |
| 2026-04-17 11:45 | -38.56874 | 145.67150 | 26574 ft | 428 kts | 333° |
| 2026-04-17 11:46 | -38.54103 | 145.65786 | 26136 ft | 426 kts | 333° |
| 2026-04-17 11:46 | -38.51343 | 145.64428 | 25659 ft | 425 kts | 333° |
| 2026-04-17 11:46 | -38.48586 | 145.63073 | 25199 ft | 424 kts | 333° |
| 2026-04-17 11:46 | -38.45919 | 145.61532 | 24772 ft | 416 kts | 325° |
| 2026-04-17 11:47 | -38.43378 | 145.59776 | 24345 ft | 413 kts | 325° |
| 2026-04-17 11:47 | -38.40859 | 145.58036 | 23916 ft | 412 kts | 325° |
| 2026-04-17 11:47 | -38.38344 | 145.56303 | 23435 ft | 410 kts | 325° |
| 2026-04-17 11:47 | -38.35847 | 145.54586 | 22993 ft | 405 kts | 325° |
| 2026-04-17 11:48 | -38.33379 | 145.52890 | 22579 ft | 401 kts | 325° |
| 2026-04-17 11:48 | -38.30936 | 145.51208 | 22140 ft | 397 kts | 325° |
| 2026-04-17 11:48 | -38.28521 | 145.49545 | 21721 ft | 393 kts | 325° |
| 2026-04-17 11:48 | -38.26126 | 145.47898 | 21297 ft | 389 kts | 325° |
| 2026-04-17 11:49 | -38.23757 | 145.46270 | 20882 ft | 386 kts | 325° |
| 2026-04-17 11:49 | -38.21401 | 145.44655 | 20460 ft | 383 kts | 325° |
| 2026-04-17 11:49 | -38.19059 | 145.43053 | 20042 ft | 381 kts | 325° |
| 2026-04-17 11:49 | -38.16735 | 145.41465 | 19621 ft | 378 kts | 325° |
| 2026-04-17 11:50 | -38.14423 | 145.39882 | 19202 ft | 376 kts | 325° |
| 2026-04-17 11:50 | -38.12127 | 145.38309 | 18788 ft | 374 kts | 325° |
| 2026-04-17 11:50 | -38.09843 | 145.36744 | 18353 ft | 372 kts | 326° |
| 2026-04-17 11:50 | -38.07571 | 145.35193 | 17925 ft | 369 kts | 326° |
| 2026-04-17 11:51 | -38.05321 | 145.33660 | 17520 ft | 366 kts | 326° |
| 2026-04-17 11:51 | -38.03086 | 145.32139 | 17112 ft | 363 kts | 326° |
| 2026-04-17 11:51 | -38.00870 | 145.30633 | 16706 ft | 360 kts | 326° |
| 2026-04-17 11:51 | -37.98680 | 145.29122 | 16303 ft | 357 kts | 325° |
| 2026-04-17 11:52 | -37.96510 | 145.27606 | 15903 ft | 355 kts | 325° |
| 2026-04-17 11:52 | -37.94353 | 145.26086 | 15485 ft | 353 kts | 325° |
| 2026-04-17 11:52 | -37.92218 | 145.24576 | 15109 ft | 351 kts | 325° |
| 2026-04-17 11:52 | -37.90089 | 145.23078 | 14720 ft | 349 kts | 325° |
| 2026-04-17 11:53 | -37.87967 | 145.21592 | 14328 ft | 348 kts | 325° |
| 2026-04-17 11:53 | -37.85853 | 145.20115 | 13922 ft | 347 kts | 326° |
| 2026-04-17 11:53 | -37.83748 | 145.18647 | 13521 ft | 345 kts | 326° |
| 2026-04-17 11:53 | -37.81644 | 145.17217 | 13134 ft | 343 kts | 327° |
| 2026-04-17 11:54 | -37.79539 | 145.15816 | 12750 ft | 341 kts | 327° |
| 2026-04-17 11:54 | -37.77441 | 145.14429 | 12368 ft | 339 kts | 327° |
| 2026-04-17 11:54 | -37.75352 | 145.13056 | 11987 ft | 337 kts | 328° |
| 2026-04-17 11:54 | -37.73283 | 145.11692 | 11716 ft | 332 kts | 328° |
| 2026-04-17 11:55 | -37.71259 | 145.10383 | 11282 ft | 333 kts | 329° |
| 2026-04-17 11:55 | -37.69190 | 145.09138 | 10710 ft | 328 kts | 331° |
| 2026-04-17 11:55 | -37.67133 | 145.07948 | 10231 ft | 320 kts | 332° |
| 2026-04-17 11:55 | -37.65138 | 145.06809 | 9837 ft | 309 kts | 332° |
| 2026-04-17 11:56 | -37.63217 | 145.05707 | 9485 ft | 298 kts | 331° |
| 2026-04-17 11:56 | -37.61364 | 145.04636 | 9145 ft | 288 kts | 331° |
| 2026-04-17 11:56 | -37.59575 | 145.03595 | 8825 ft | 281 kts | 331° |
| 2026-04-17 11:56 | -37.57806 | 145.02559 | 8482 ft | 278 kts | 331° |
| 2026-04-17 11:57 | -37.56078 | 145.01548 | 8166 ft | 270 kts | 331° |
| 2026-04-17 11:57 | -37.54400 | 145.00564 | 7765 ft | 264 kts | 330° |
| 2026-04-17 11:57 | -37.52718 | 144.99552 | 7145 ft | 270 kts | 330° |
| 2026-04-17 11:57 | -37.51073 | 144.98552 | 6974 ft | 254 kts | 330° |
| 2026-04-17 11:58 | -37.49522 | 144.97612 | 6879 ft | 243 kts | 330° |
| 2026-04-17 11:58 | -37.48023 | 144.96704 | 6739 ft | 234 kts | 329° |
| 2026-04-17 11:58 | -37.46619 | 144.95728 | 6425 ft | 226 kts | 317° |
| 2026-04-17 11:58 | -37.45571 | 144.94349 | 6104 ft | 211 kts | 297° |
| 2026-04-17 11:59 | -37.44948 | 144.92767 | 5784 ft | 195 kts | 281° |
| 2026-04-17 11:59 | -37.44718 | 144.91117 | 5278 ft | 187 kts | 264° |
| 2026-04-17 11:59 | -37.44839 | 144.89562 | 5004 ft | 166 kts | 252° |
| 2026-04-17 11:59 | -37.45033 | 144.88184 | 4868 ft | 158 kts | 252° |
| 2026-04-17 12:00 | -37.45261 | 144.86683 | 4600 ft | 187 kts | 252° |
| 2026-04-17 12:00 | -37.45514 | 144.85078 | 4398 ft | 186 kts | 252° |
| 2026-04-17 12:00 | -37.45765 | 144.83428 | 4327 ft | 197 kts | 253° |
| 2026-04-17 12:00 | -37.46028 | 144.81712 | 4249 ft | 198 kts | 253° |
| 2026-04-17 12:01 | -37.46534 | 144.80186 | 4099 ft | 184 kts | 220° |
| 2026-04-17 12:01 | -37.47667 | 144.79671 | 3975 ft | 178 kts | 173° |
| 2026-04-17 12:01 | -37.48784 | 144.80274 | 3797 ft | 170 kts | 156° |
| 2026-04-17 12:01 | -37.49874 | 144.80613 | 3590 ft | 158 kts | 176° |
| 2026-04-17 12:02 | -37.50950 | 144.80805 | 3368 ft | 153 kts | 173° |
| 2026-04-17 12:02 | -37.51981 | 144.81003 | 3151 ft | 146 kts | 173° |
| 2026-04-17 12:02 | -37.52959 | 144.81189 | 3002 ft | 140 kts | 174° |
| 2026-04-17 12:02 | -37.53917 | 144.81368 | 2797 ft | 139 kts | 174° |
| 2026-04-17 12:03 | -37.54879 | 144.81547 | 2598 ft | 139 kts | 175° |
| 2026-04-17 12:03 | -37.55794 | 144.81718 | 2417 ft | 133 kts | 175° |
| 2026-04-17 12:03 | -37.56702 | 144.81886 | 2236 ft | 131 kts | 175° |
| 2026-04-17 12:03 | -37.57601 | 144.82053 | 2064 ft | 130 kts | 175° |
| 2026-04-17 12:04 | -37.58501 | 144.82221 | 1878 ft | 130 kts | 175° |
| 2026-04-17 12:04 | -37.59403 | 144.82389 | 1697 ft | 132 kts | 174° |
| 2026-04-17 12:04 | -37.60316 | 144.82558 | 1504 ft | 134 kts | 175° |
| 2026-04-17 12:04 | -37.61248 | 144.82732 | 1310 ft | 137 kts | 174° |
| 2026-04-17 12:05 | -37.62202 | 144.82910 | 1113 ft | 140 kts | 174° |
| 2026-04-17 12:05 | -37.63171 | 144.83090 | 918 ft | 142 kts | 174° |
| 2026-04-17 12:05 | -37.64147 | 144.83273 | 724 ft | 142 kts | 175° |
| 2026-04-17 12:05 | -37.65125 | 144.83455 | 520 ft | 140 kts | 175° |
| 2026-04-17 12:06 | -37.66083 | 144.83629 | 411 ft | 131 kts | 173° |
| 2026-04-17 12:06 | -37.66800 | 144.83768 | 389 ft | 64 kts | 170° |
| 2026-04-17 12:06 | -37.67021 | 144.83852 | 385 ft | 15 kts | 154° |
| 2026-04-17 12:06 | -37.67114 | 144.83935 | 382 ft | 13 kts | 141° |
| 2026-04-17 12:07 | -37.67146 | 144.83967 | 381 ft | 5 kts | 142° |
| 2026-04-17 12:07 | -37.67185 | 144.84006 | 379 ft | 9 kts | 142° |
| 2026-04-17 12:07 | -37.67223 | 144.84088 | 378 ft | 13 kts | 99° |
| 2026-04-17 12:07 | -37.67217 | 144.84203 | 380 ft | 13 kts | 83° |
| 2026-04-17 12:08 | -37.67207 | 144.84321 | 382 ft | 14 kts | 84° |
| 2026-04-17 12:08 | -37.67198 | 144.84440 | 384 ft | 12 kts | 89° |
| 2026-04-17 12:08 | -37.67213 | 144.84531 | 385 ft | 9 kts | 87° |
| 2026-04-17 12:08 | -37.67209 | 144.84591 | 386 ft | 5 kts | 104° |
| 2026-04-17 12:09 | -37.67247 | 144.84608 | 385 ft | 8 kts | 172° |
| 2026-04-17 12:09 | -37.67274 | 144.84614 | 385 ft | 0 kts | 169° |